sensor_id;sensor_type;location;lat;lon;timestamp;temperature;humidity
27072;DHT22;14613;46.308;25.288;2023-03-07T00:00:12;4.00;69.70
27072;DHT22;14613;46.308;25.288;2023-03-07T00:02:39;4.00;70.00
27072;DHT22;14613;46.308;25.288;2023-03-07T00:05:05;4.00;70.10
27072;DHT22;14613;46.308;25.288;2023-03-07T00:07:31;4.10;70.00
27072;DHT22;14613;46.308;25.288;2023-03-07T00:09:58;4.10;69.90
27072;DHT22;14613;46.308;25.288;2023-03-07T00:12:24;4.20;69.80
27072;DHT22;14613;46.308;25.288;2023-03-07T00:14:50;4.30;69.80
27072;DHT22;14613;46.308;25.288;2023-03-07T00:17:16;4.30;69.60
27072;DHT22;14613;46.308;25.288;2023-03-07T00:19:42;4.40;69.60
27072;DHT22;14613;46.308;25.288;2023-03-07T00:22:09;4.40;69.40
27072;DHT22;14613;46.308;25.288;2023-03-07T00:24:35;4.40;69.40
27072;DHT22;14613;46.308;25.288;2023-03-07T00:27:01;4.50;69.40
27072;DHT22;14613;46.308;25.288;2023-03-07T00:29:28;4.50;69.30
27072;DHT22;14613;46.308;25.288;2023-03-07T00:31:53;4.60;69.30
27072;DHT22;14613;46.308;25.288;2023-03-07T00:34:19;4.60;69.20
27072;DHT22;14613;46.308;25.288;2023-03-07T00:36:45;4.60;69.20
27072;DHT22;14613;46.308;25.288;2023-03-07T00:39:11;4.70;69.10
27072;DHT22;14613;46.308;25.288;2023-03-07T00:41:37;4.70;69.00
27072;DHT22;14613;46.308;25.288;2023-03-07T00:44:02;4.70;69.00
27072;DHT22;14613;46.308;25.288;2023-03-07T00:46:29;4.70;69.00
27072;DHT22;14613;46.308;25.288;2023-03-07T00:48:54;4.70;69.00
27072;DHT22;14613;46.308;25.288;2023-03-07T00:51:22;4.70;69.00
27072;DHT22;14613;46.308;25.288;2023-03-07T00:53:48;4.70;69.10
27072;DHT22;14613;46.308;25.288;2023-03-07T00:56:22;4.70;69.20
27072;DHT22;14613;46.308;25.288;2023-03-07T00:58:48;4.70;69.20
27072;DHT22;14613;46.308;25.288;2023-03-07T01:01:17;4.70;69.30
27072;DHT22;14613;46.308;25.288;2023-03-07T01:03:44;4.70;69.30
27072;DHT22;14613;46.308;25.288;2023-03-07T01:06:15;4.70;69.30
27072;DHT22;14613;46.308;25.288;2023-03-07T01:08:41;4.70;69.30
27072;DHT22;14613;46.308;25.288;2023-03-07T01:11:07;4.70;69.30
27072;DHT22;14613;46.308;25.288;2023-03-07T01:13:34;4.80;69.40
27072;DHT22;14613;46.308;25.288;2023-03-07T01:16:27;4.80;69.40
27072;DHT22;14613;46.308;25.288;2023-03-07T01:18:56;4.80;69.30
27072;DHT22;14613;46.308;25.288;2023-03-07T01:21:25;4.80;69.30
27072;DHT22;14613;46.308;25.288;2023-03-07T01:23:52;4.90;69.30
27072;DHT22;14613;46.308;25.288;2023-03-07T01:26:21;4.90;69.20
27072;DHT22;14613;46.308;25.288;2023-03-07T01:28:49;4.90;69.20
27072;DHT22;14613;46.308;25.288;2023-03-07T01:31:15;4.90;69.30
27072;DHT22;14613;46.308;25.288;2023-03-07T01:33:41;4.90;69.30
27072;DHT22;14613;46.308;25.288;2023-03-07T01:36:27;4.80;69.40
27072;DHT22;14613;46.308;25.288;2023-03-07T01:39:15;4.70;69.60
27072;DHT22;14613;46.308;25.288;2023-03-07T01:41:42;4.70;69.70
27072;DHT22;14613;46.308;25.288;2023-03-07T01:44:26;4.70;69.70
27072;DHT22;14613;46.308;25.288;2023-03-07T01:46:57;4.80;69.70
27072;DHT22;14613;46.308;25.288;2023-03-07T01:49:35;4.70;69.70
27072;DHT22;14613;46.308;25.288;2023-03-07T01:52:09;4.70;70.00
27072;DHT22;14613;46.308;25.288;2023-03-07T01:54:43;4.60;70.20
27072;DHT22;14613;46.308;25.288;2023-03-07T01:57:15;4.60;70.30
27072;DHT22;14613;46.308;25.288;2023-03-07T01:59:45;4.70;70.30
27072;DHT22;14613;46.308;25.288;2023-03-07T02:02:17;4.70;70.20
27072;DHT22;14613;46.308;25.288;2023-03-07T02:04:51;4.70;70.10
27072;DHT22;14613;46.308;25.288;2023-03-07T02:07:20;4.80;70.10
27072;DHT22;14613;46.308;25.288;2023-03-07T02:09:48;4.80;70.00
27072;DHT22;14613;46.308;25.288;2023-03-07T02:12:15;4.90;70.20
27072;DHT22;14613;46.308;25.288;2023-03-07T02:14:47;4.90;70.20
27072;DHT22;14613;46.308;25.288;2023-03-07T02:17:13;4.90;70.20
27072;DHT22;14613;46.308;25.288;2023-03-07T02:19:57;4.90;70.10
27072;DHT22;14613;46.308;25.288;2023-03-07T02:22:26;5.00;70.20
27072;DHT22;14613;46.308;25.288;2023-03-07T02:25:10;4.90;70.30
27072;DHT22;14613;46.308;25.288;2023-03-07T02:27:40;4.90;70.60
27072;DHT22;14613;46.308;25.288;2023-03-07T02:30:07;4.90;70.60
27072;DHT22;14613;46.308;25.288;2023-03-07T02:32:33;4.90;70.70
27072;DHT22;14613;46.308;25.288;2023-03-07T02:34:59;5.00;70.80
27072;DHT22;14613;46.308;25.288;2023-03-07T02:37:33;5.00;71.00
27072;DHT22;14613;46.308;25.288;2023-03-07T02:40:06;5.00;71.20
27072;DHT22;14613;46.308;25.288;2023-03-07T02:42:41;5.00;71.30
27072;DHT22;14613;46.308;25.288;2023-03-07T02:45:13;5.00;71.50
27072;DHT22;14613;46.308;25.288;2023-03-07T02:47:41;5.00;71.60
27072;DHT22;14613;46.308;25.288;2023-03-07T02:50:08;5.10;71.70
27072;DHT22;14613;46.308;25.288;2023-03-07T02:52:35;5.10;71.70
27072;DHT22;14613;46.308;25.288;2023-03-07T02:55:00;5.10;71.60
27072;DHT22;14613;46.308;25.288;2023-03-07T02:57:26;5.20;71.50
27072;DHT22;14613;46.308;25.288;2023-03-07T02:59:52;5.20;71.40
27072;DHT22;14613;46.308;25.288;2023-03-07T03:02:18;5.20;71.50
27072;DHT22;14613;46.308;25.288;2023-03-07T03:04:43;5.20;71.70
27072;DHT22;14613;46.308;25.288;2023-03-07T03:07:09;5.20;71.80
27072;DHT22;14613;46.308;25.288;2023-03-07T03:09:35;5.20;72.10
27072;DHT22;14613;46.308;25.288;2023-03-07T03:12:01;5.20;72.20
27072;DHT22;14613;46.308;25.288;2023-03-07T03:14:27;5.20;72.40
27072;DHT22;14613;46.308;25.288;2023-03-07T03:16:53;5.10;72.50
27072;DHT22;14613;46.308;25.288;2023-03-07T03:19:19;5.20;72.70
27072;DHT22;14613;46.308;25.288;2023-03-07T03:21:45;5.20;72.70
27072;DHT22;14613;46.308;25.288;2023-03-07T03:24:11;5.30;72.80
27072;DHT22;14613;46.308;25.288;2023-03-07T03:26:37;5.30;72.80
27072;DHT22;14613;46.308;25.288;2023-03-07T03:29:04;5.30;72.80
27072;DHT22;14613;46.308;25.288;2023-03-07T03:31:31;5.40;72.70
27072;DHT22;14613;46.308;25.288;2023-03-07T03:33:57;5.40;72.80
27072;DHT22;14613;46.308;25.288;2023-03-07T03:36:24;5.40;72.70
27072;DHT22;14613;46.308;25.288;2023-03-07T03:38:57;5.40;72.70
27072;DHT22;14613;46.308;25.288;2023-03-07T03:41:24;5.40;72.80
27072;DHT22;14613;46.308;25.288;2023-03-07T03:43:50;5.40;72.80
27072;DHT22;14613;46.308;25.288;2023-03-07T03:46:16;5.40;72.80
27072;DHT22;14613;46.308;25.288;2023-03-07T03:48:49;5.40;72.80
27072;DHT22;14613;46.308;25.288;2023-03-07T03:51:14;5.40;72.80
27072;DHT22;14613;46.308;25.288;2023-03-07T03:53:41;5.40;72.80
27072;DHT22;14613;46.308;25.288;2023-03-07T03:56:12;5.40;73.00
27072;DHT22;14613;46.308;25.288;2023-03-07T03:58:39;5.40;73.00
27072;DHT22;14613;46.308;25.288;2023-03-07T04:01:07;5.40;73.00
27072;DHT22;14613;46.308;25.288;2023-03-07T04:03:42;5.40;73.10
27072;DHT22;14613;46.308;25.288;2023-03-07T04:06:11;5.30;73.10
27072;DHT22;14613;46.308;25.288;2023-03-07T04:08:38;5.30;73.30
27072;DHT22;14613;46.308;25.288;2023-03-07T04:11:04;5.30;73.40
27072;DHT22;14613;46.308;25.288;2023-03-07T04:13:34;5.30;73.40
27072;DHT22;14613;46.308;25.288;2023-03-07T04:16:00;5.20;73.40
27072;DHT22;14613;46.308;25.288;2023-03-07T04:18:26;5.20;73.70
27072;DHT22;14613;46.308;25.288;2023-03-07T04:20:53;5.10;73.90
27072;DHT22;14613;46.308;25.288;2023-03-07T04:23:20;5.10;74.10
27072;DHT22;14613;46.308;25.288;2023-03-07T04:25:51;5.00;74.30
27072;DHT22;14613;46.308;25.288;2023-03-07T04:28:20;5.00;74.40
27072;DHT22;14613;46.308;25.288;2023-03-07T04:30:46;4.90;74.60
27072;DHT22;14613;46.308;25.288;2023-03-07T04:33:15;4.90;75.00
27072;DHT22;14613;46.308;25.288;2023-03-07T04:35:41;4.90;75.20
27072;DHT22;14613;46.308;25.288;2023-03-07T04:38:07;4.90;75.30
27072;DHT22;14613;46.308;25.288;2023-03-07T04:40:34;5.00;75.30
27072;DHT22;14613;46.308;25.288;2023-03-07T04:43:01;5.00;75.20
27072;DHT22;14613;46.308;25.288;2023-03-07T04:45:28;5.10;75.30
27072;DHT22;14613;46.308;25.288;2023-03-07T04:47:54;5.10;75.20
27072;DHT22;14613;46.308;25.288;2023-03-07T04:50:21;5.10;75.10
27072;DHT22;14613;46.308;25.288;2023-03-07T04:52:47;5.20;75.10
27072;DHT22;14613;46.308;25.288;2023-03-07T04:55:15;5.20;75.10
27072;DHT22;14613;46.308;25.288;2023-03-07T04:57:41;5.20;75.00
27072;DHT22;14613;46.308;25.288;2023-03-07T05:00:07;5.20;75.00
27072;DHT22;14613;46.308;25.288;2023-03-07T05:02:35;5.20;75.00
27072;DHT22;14613;46.308;25.288;2023-03-07T05:05:01;5.30;75.10
27072;DHT22;14613;46.308;25.288;2023-03-07T05:07:27;5.30;75.00
27072;DHT22;14613;46.308;25.288;2023-03-07T05:09:54;5.30;75.00
27072;DHT22;14613;46.308;25.288;2023-03-07T05:12:21;5.40;75.00
27072;DHT22;14613;46.308;25.288;2023-03-07T05:14:46;5.40;75.00
27072;DHT22;14613;46.308;25.288;2023-03-07T05:17:12;5.40;75.00
27072;DHT22;14613;46.308;25.288;2023-03-07T05:19:38;5.40;75.00
27072;DHT22;14613;46.308;25.288;2023-03-07T05:22:04;5.40;75.00
27072;DHT22;14613;46.308;25.288;2023-03-07T05:24:30;5.40;75.00
27072;DHT22;14613;46.308;25.288;2023-03-07T05:26:56;5.40;75.00
27072;DHT22;14613;46.308;25.288;2023-03-07T05:29:22;5.40;75.10
27072;DHT22;14613;46.308;25.288;2023-03-07T05:31:48;5.40;75.10
27072;DHT22;14613;46.308;25.288;2023-03-07T05:34:13;5.50;75.30
27072;DHT22;14613;46.308;25.288;2023-03-07T05:36:40;5.50;75.30
27072;DHT22;14613;46.308;25.288;2023-03-07T05:39:06;5.50;75.20
27072;DHT22;14613;46.308;25.288;2023-03-07T05:41:32;5.50;75.20
27072;DHT22;14613;46.308;25.288;2023-03-07T05:43:58;5.50;75.30
27072;DHT22;14613;46.308;25.288;2023-03-07T05:46:24;5.50;75.20
27072;DHT22;14613;46.308;25.288;2023-03-07T05:48:50;5.60;75.30
27072;DHT22;14613;46.308;25.288;2023-03-07T05:51:16;5.60;75.30
27072;DHT22;14613;46.308;25.288;2023-03-07T05:53:41;5.60;75.30
27072;DHT22;14613;46.308;25.288;2023-03-07T05:56:08;5.60;75.30
27072;DHT22;14613;46.308;25.288;2023-03-07T05:58:33;5.60;75.30
27072;DHT22;14613;46.308;25.288;2023-03-07T06:01:02;5.60;75.40
27072;DHT22;14613;46.308;25.288;2023-03-07T06:03:29;5.60;75.40
27072;DHT22;14613;46.308;25.288;2023-03-07T06:05:55;5.60;75.50
27072;DHT22;14613;46.308;25.288;2023-03-07T06:08:21;5.60;75.60
27072;DHT22;14613;46.308;25.288;2023-03-07T06:10:51;5.60;75.70
27072;DHT22;14613;46.308;25.288;2023-03-07T06:13:22;5.60;75.80
27072;DHT22;14613;46.308;25.288;2023-03-07T06:15:52;5.60;75.80
27072;DHT22;14613;46.308;25.288;2023-03-07T06:18:20;5.70;75.90
27072;DHT22;14613;46.308;25.288;2023-03-07T06:21:00;5.70;75.70
27072;DHT22;14613;46.308;25.288;2023-03-07T06:23:28;5.70;75.70
27072;DHT22;14613;46.308;25.288;2023-03-07T06:25:54;5.70;75.70
27072;DHT22;14613;46.308;25.288;2023-03-07T06:28:20;5.80;75.70
27072;DHT22;14613;46.308;25.288;2023-03-07T06:30:46;5.80;75.70
27072;DHT22;14613;46.308;25.288;2023-03-07T06:33:13;5.80;75.70
27072;DHT22;14613;46.308;25.288;2023-03-07T06:35:40;5.80;75.70
27072;DHT22;14613;46.308;25.288;2023-03-07T06:38:07;5.90;75.70
27072;DHT22;14613;46.308;25.288;2023-03-07T06:40:33;5.90;75.70
27072;DHT22;14613;46.308;25.288;2023-03-07T06:42:59;5.90;75.70
27072;DHT22;14613;46.308;25.288;2023-03-07T06:45:25;5.90;75.70
27072;DHT22;14613;46.308;25.288;2023-03-07T06:47:51;5.90;75.70
27072;DHT22;14613;46.308;25.288;2023-03-07T06:50:18;5.90;75.70
27072;DHT22;14613;46.308;25.288;2023-03-07T06:52:44;5.90;75.80
27072;DHT22;14613;46.308;25.288;2023-03-07T06:55:09;5.90;75.90
27072;DHT22;14613;46.308;25.288;2023-03-07T06:57:36;5.90;76.00
27072;DHT22;14613;46.308;25.288;2023-03-07T07:00:04;5.90;75.90
27072;DHT22;14613;46.308;25.288;2023-03-07T07:02:31;5.90;76.00
27072;DHT22;14613;46.308;25.288;2023-03-07T07:04:56;5.90;76.20
27072;DHT22;14613;46.308;25.288;2023-03-07T07:07:23;5.90;76.30
27072;DHT22;14613;46.308;25.288;2023-03-07T07:09:50;5.90;76.40
27072;DHT22;14613;46.308;25.288;2023-03-07T07:12:16;5.90;76.50
27072;DHT22;14613;46.308;25.288;2023-03-07T07:14:42;5.90;76.50
27072;DHT22;14613;46.308;25.288;2023-03-07T07:17:08;5.90;76.60
27072;DHT22;14613;46.308;25.288;2023-03-07T07:19:34;5.90;76.60
27072;DHT22;14613;46.308;25.288;2023-03-07T07:22:00;5.90;76.60
27072;DHT22;14613;46.308;25.288;2023-03-07T07:24:25;5.90;76.60
27072;DHT22;14613;46.308;25.288;2023-03-07T07:26:51;6.00;76.70
27072;DHT22;14613;46.308;25.288;2023-03-07T07:29:17;6.00;76.60
27072;DHT22;14613;46.308;25.288;2023-03-07T07:31:43;6.00;76.60
27072;DHT22;14613;46.308;25.288;2023-03-07T07:34:09;6.00;76.80
27072;DHT22;14613;46.308;25.288;2023-03-07T07:36:35;6.00;76.90
27072;DHT22;14613;46.308;25.288;2023-03-07T07:39:04;6.00;77.00
27072;DHT22;14613;46.308;25.288;2023-03-07T07:41:31;6.00;77.10
27072;DHT22;14613;46.308;25.288;2023-03-07T07:43:57;6.00;77.20
27072;DHT22;14613;46.308;25.288;2023-03-07T07:46:23;6.00;77.10
27072;DHT22;14613;46.308;25.288;2023-03-07T07:48:49;6.00;77.10
27072;DHT22;14613;46.308;25.288;2023-03-07T07:51:15;6.00;77.20
27072;DHT22;14613;46.308;25.288;2023-03-07T07:53:41;6.00;77.40
27072;DHT22;14613;46.308;25.288;2023-03-07T07:56:07;6.00;77.50
27072;DHT22;14613;46.308;25.288;2023-03-07T07:58:33;6.10;77.70
27072;DHT22;14613;46.308;25.288;2023-03-07T08:00:59;6.10;77.80
27072;DHT22;14613;46.308;25.288;2023-03-07T08:03:25;6.10;77.80
27072;DHT22;14613;46.308;25.288;2023-03-07T08:05:51;6.10;77.80
27072;DHT22;14613;46.308;25.288;2023-03-07T08:08:18;6.20;77.80
27072;DHT22;14613;46.308;25.288;2023-03-07T08:10:47;6.20;77.80
27072;DHT22;14613;46.308;25.288;2023-03-07T08:13:14;6.20;77.80
27072;DHT22;14613;46.308;25.288;2023-03-07T08:15:41;6.20;77.80
27072;DHT22;14613;46.308;25.288;2023-03-07T08:18:07;6.20;78.00
27072;DHT22;14613;46.308;25.288;2023-03-07T08:20:36;6.20;79.00
27072;DHT22;14613;46.308;25.288;2023-03-07T08:23:02;6.30;78.30
27072;DHT22;14613;46.308;25.288;2023-03-07T08:25:28;6.30;78.30
27072;DHT22;14613;46.308;25.288;2023-03-07T08:27:54;6.40;78.30
27072;DHT22;14613;46.308;25.288;2023-03-07T08:30:31;6.40;78.40
27072;DHT22;14613;46.308;25.288;2023-03-07T08:32:58;6.50;78.60
27072;DHT22;14613;46.308;25.288;2023-03-07T08:35:25;6.50;78.40
27072;DHT22;14613;46.308;25.288;2023-03-07T08:37:56;6.60;78.40
27072;DHT22;14613;46.308;25.288;2023-03-07T08:40:24;6.60;78.30
27072;DHT22;14613;46.308;25.288;2023-03-07T08:42:51;6.70;78.40
27072;DHT22;14613;46.308;25.288;2023-03-07T08:45:17;6.70;78.20
27072;DHT22;14613;46.308;25.288;2023-03-07T08:47:42;6.70;78.20
27072;DHT22;14613;46.308;25.288;2023-03-07T08:50:09;6.70;78.30
27072;DHT22;14613;46.308;25.288;2023-03-07T08:52:35;6.80;78.40
27072;DHT22;14613;46.308;25.288;2023-03-07T08:55:00;6.80;78.50
27072;DHT22;14613;46.308;25.288;2023-03-07T08:57:26;6.80;78.60
27072;DHT22;14613;46.308;25.288;2023-03-07T08:59:52;6.70;78.80
27072;DHT22;14613;46.308;25.288;2023-03-07T09:02:18;6.70;78.80
27072;DHT22;14613;46.308;25.288;2023-03-07T09:04:43;6.70;79.10
27072;DHT22;14613;46.308;25.288;2023-03-07T09:07:10;6.70;79.40
27072;DHT22;14613;46.308;25.288;2023-03-07T09:09:36;6.70;79.70
27072;DHT22;14613;46.308;25.288;2023-03-07T09:12:02;6.70;80.00
27072;DHT22;14613;46.308;25.288;2023-03-07T09:14:28;6.70;80.20
27072;DHT22;14613;46.308;25.288;2023-03-07T09:16:54;6.70;80.30
27072;DHT22;14613;46.308;25.288;2023-03-07T09:19:19;6.70;80.30
27072;DHT22;14613;46.308;25.288;2023-03-07T09:21:45;6.80;80.50
27072;DHT22;14613;46.308;25.288;2023-03-07T09:24:11;6.90;80.30
27072;DHT22;14613;46.308;25.288;2023-03-07T09:26:37;7.00;80.30
27072;DHT22;14613;46.308;25.288;2023-03-07T09:29:02;7.00;80.30
27072;DHT22;14613;46.308;25.288;2023-03-07T09:31:28;7.20;80.50
27072;DHT22;14613;46.308;25.288;2023-03-07T09:33:55;7.30;80.20
27072;DHT22;14613;46.308;25.288;2023-03-07T09:36:21;7.40;80.00
27072;DHT22;14613;46.308;25.288;2023-03-07T09:38:47;7.50;80.10
27072;DHT22;14613;46.308;25.288;2023-03-07T09:46:45;7.90;79.90
27072;DHT22;14613;46.308;25.288;2023-03-07T09:49:33;8.00;79.60
27072;DHT22;14613;46.308;25.288;2023-03-07T09:52:01;8.10;79.50
27072;DHT22;14613;46.308;25.288;2023-03-07T09:57:22;8.30;79.40
27072;DHT22;14613;46.308;25.288;2023-03-07T09:59:52;8.40;79.40
27072;DHT22;14613;46.308;25.288;2023-03-07T10:07:54;8.60;79.00
27072;DHT22;14613;46.308;25.288;2023-03-07T10:10:23;8.70;78.80
27072;DHT22;14613;46.308;25.288;2023-03-07T10:13:04;8.80;78.70
27072;DHT22;14613;46.308;25.288;2023-03-07T10:15:59;8.80;78.70
27072;DHT22;14613;46.308;25.288;2023-03-07T10:24:22;8.90;78.00
27072;DHT22;14613;46.308;25.288;2023-03-07T10:27:05;8.80;78.00
27072;DHT22;14613;46.308;25.288;2023-03-07T10:29:49;8.80;78.40
27072;DHT22;14613;46.308;25.288;2023-03-07T10:32:35;8.60;78.70
27072;DHT22;14613;46.308;25.288;2023-03-07T10:37:48;8.50;79.30
27072;DHT22;14613;46.308;25.288;2023-03-07T10:40:32;8.50;79.60
27072;DHT22;14613;46.308;25.288;2023-03-07T10:42:59;8.60;79.60
27072;DHT22;14613;46.308;25.288;2023-03-07T10:45:29;8.60;79.50
27072;DHT22;14613;46.308;25.288;2023-03-07T10:48:05;8.70;79.60
27072;DHT22;14613;46.308;25.288;2023-03-07T10:50:51;8.80;79.70
27072;DHT22;14613;46.308;25.288;2023-03-07T10:53:23;8.90;79.90
27072;DHT22;14613;46.308;25.288;2023-03-07T10:55:49;9.10;79.60
27072;DHT22;14613;46.308;25.288;2023-03-07T10:58:24;9.30;79.40
27072;DHT22;14613;46.308;25.288;2023-03-07T11:04:27;9.60;78.20
27072;DHT22;14613;46.308;25.288;2023-03-07T11:06:57;9.70;78.10
27072;DHT22;14613;46.308;25.288;2023-03-07T11:09:30;9.80;77.80
27072;DHT22;14613;46.308;25.288;2023-03-07T11:14:57;10.00;77.30
27072;DHT22;14613;46.308;25.288;2023-03-07T11:17:40;10.00;76.90
27072;DHT22;14613;46.308;25.288;2023-03-07T11:20:27;10.10;77.00
27072;DHT22;14613;46.308;25.288;2023-03-07T11:23:13;10.10;76.80
27072;DHT22;14613;46.308;25.288;2023-03-07T11:25:43;10.10;76.60
27072;DHT22;14613;46.308;25.288;2023-03-07T11:28:30;10.10;76.60
27072;DHT22;14613;46.308;25.288;2023-03-07T11:31:13;10.20;76.50
27072;DHT22;14613;46.308;25.288;2023-03-07T11:33:52;10.30;76.60
27072;DHT22;14613;46.308;25.288;2023-03-07T11:36:23;10.40;76.60
27072;DHT22;14613;46.308;25.288;2023-03-07T11:41:27;10.50;76.20
27072;DHT22;14613;46.308;25.288;2023-03-07T11:54:28;10.40;76.00
27072;DHT22;14613;46.308;25.288;2023-03-07T11:59:53;10.30;76.20
27072;DHT22;14613;46.308;25.288;2023-03-07T12:16:57;10.00;76.30
27072;DHT22;14613;46.308;25.288;2023-03-07T12:19:38;10.00;76.50
27072;DHT22;14613;46.308;25.288;2023-03-07T12:33:19;10.10;76.30
27072;DHT22;14613;46.308;25.288;2023-03-07T12:35:52;10.10;76.20
27072;DHT22;14613;46.308;25.288;2023-03-07T12:40:52;10.10;76.10
27072;DHT22;14613;46.308;25.288;2023-03-07T12:43:26;10.10;76.20
27072;DHT22;14613;46.308;25.288;2023-03-07T12:46:33;10.10;76.20
27072;DHT22;14613;46.308;25.288;2023-03-07T12:51:39;10.00;76.20
27072;DHT22;14613;46.308;25.288;2023-03-07T12:54:17;10.00;76.20
27072;DHT22;14613;46.308;25.288;2023-03-07T12:57:45;10.00;76.20
27072;DHT22;14613;46.308;25.288;2023-03-07T13:00:12;10.00;76.30
27072;DHT22;14613;46.308;25.288;2023-03-07T13:02:48;9.90;77.20
27072;DHT22;14613;46.308;25.288;2023-03-07T13:05:20;10.00;76.50
27072;DHT22;14613;46.308;25.288;2023-03-07T13:07:47;9.90;76.60
27072;DHT22;14613;46.308;25.288;2023-03-07T13:10:21;10.00;76.60
27072;DHT22;14613;46.308;25.288;2023-03-07T13:12:49;10.00;76.70
27072;DHT22;14613;46.308;25.288;2023-03-07T13:22:55;10.00;76.30
27072;DHT22;14613;46.308;25.288;2023-03-07T13:27:55;10.00;76.60
27072;DHT22;14613;46.308;25.288;2023-03-07T13:30:28;10.00;76.60
27072;DHT22;14613;46.308;25.288;2023-03-07T13:33:03;9.90;76.70
27072;DHT22;14613;46.308;25.288;2023-03-07T13:35:54;9.80;76.80
27072;DHT22;14613;46.308;25.288;2023-03-07T13:40:56;9.60;77.30
27072;DHT22;14613;46.308;25.288;2023-03-07T14:01:30;9.00;79.00
27072;DHT22;14613;46.308;25.288;2023-03-07T14:04:03;9.00;79.00
27072;DHT22;14613;46.308;25.288;2023-03-07T14:06:39;9.00;79.80
27072;DHT22;14613;46.308;25.288;2023-03-07T14:09:06;9.00;79.10
27072;DHT22;14613;46.308;25.288;2023-03-07T14:26:22;9.00;79.00
27072;DHT22;14613;46.308;25.288;2023-03-07T14:28:57;9.00;79.30
27072;DHT22;14613;46.308;25.288;2023-03-07T14:31:26;9.00;79.20
27072;DHT22;14613;46.308;25.288;2023-03-07T14:33:53;9.00;79.20
27072;DHT22;14613;46.308;25.288;2023-03-07T14:36:22;9.00;79.30
27072;DHT22;14613;46.308;25.288;2023-03-07T14:38:49;9.00;80.20
27072;DHT22;14613;46.308;25.288;2023-03-07T14:52:44;8.80;80.40
27072;DHT22;14613;46.308;25.288;2023-03-07T14:55:16;8.80;80.40
27072;DHT22;14613;46.308;25.288;2023-03-07T14:57:45;8.80;80.60
27072;DHT22;14613;46.308;25.288;2023-03-07T15:05:45;8.80;80.60
27072;DHT22;14613;46.308;25.288;2023-03-07T15:11:01;8.80;80.30
27072;DHT22;14613;46.308;25.288;2023-03-07T15:13:49;8.80;80.40
27072;DHT22;14613;46.308;25.288;2023-03-07T15:21:36;8.80;80.20
27072;DHT22;14613;46.308;25.288;2023-03-07T15:24:03;8.80;80.20
27072;DHT22;14613;46.308;25.288;2023-03-07T15:26:29;8.80;80.30
27072;DHT22;14613;46.308;25.288;2023-03-07T15:29:05;8.80;80.10
27072;DHT22;14613;46.308;25.288;2023-03-07T15:31:59;8.80;80.10
27072;DHT22;14613;46.308;25.288;2023-03-07T15:34:35;8.90;80.30
27072;DHT22;14613;46.308;25.288;2023-03-07T15:37:24;8.90;80.20
27072;DHT22;14613;46.308;25.288;2023-03-07T15:42:26;8.90;80.10
27072;DHT22;14613;46.308;25.288;2023-03-07T15:44:54;8.80;80.10
27072;DHT22;14613;46.308;25.288;2023-03-07T15:47:21;8.80;80.30
27072;DHT22;14613;46.308;25.288;2023-03-07T15:49:58;8.80;80.40
27072;DHT22;14613;46.308;25.288;2023-03-07T15:52:34;8.80;80.30
27072;DHT22;14613;46.308;25.288;2023-03-07T15:55:05;8.80;80.20
27072;DHT22;14613;46.308;25.288;2023-03-07T15:57:49;8.80;80.30
27072;DHT22;14613;46.308;25.288;2023-03-07T16:00:17;8.80;80.40
27072;DHT22;14613;46.308;25.288;2023-03-07T16:02:45;8.80;80.40
27072;DHT22;14613;46.308;25.288;2023-03-07T16:07:44;8.80;80.40
27072;DHT22;14613;46.308;25.288;2023-03-07T16:10:10;8.90;80.40
27072;DHT22;14613;46.308;25.288;2023-03-07T16:12:38;8.80;80.40
27072;DHT22;14613;46.308;25.288;2023-03-07T16:15:15;8.90;80.50
27072;DHT22;14613;46.308;25.288;2023-03-07T16:17:42;8.90;80.60
27072;DHT22;14613;46.308;25.288;2023-03-07T16:20:15;8.90;80.60
27072;DHT22;14613;46.308;25.288;2023-03-07T16:22:42;8.90;80.50
27072;DHT22;14613;46.308;25.288;2023-03-07T16:25:08;8.90;80.40
27072;DHT22;14613;46.308;25.288;2023-03-07T16:27:36;8.90;81.10
27072;DHT22;14613;46.308;25.288;2023-03-07T16:30:13;8.90;80.30
27072;DHT22;14613;46.308;25.288;2023-03-07T16:32:40;8.90;80.40
27072;DHT22;14613;46.308;25.288;2023-03-07T16:35:24;9.00;80.50
27072;DHT22;14613;46.308;25.288;2023-03-07T16:37:51;8.90;80.40
27072;DHT22;14613;46.308;25.288;2023-03-07T16:40:17;9.00;80.40
27072;DHT22;14613;46.308;25.288;2023-03-07T16:42:47;9.00;80.30
27072;DHT22;14613;46.308;25.288;2023-03-07T16:47:45;9.00;80.30
27072;DHT22;14613;46.308;25.288;2023-03-07T16:50:13;9.00;80.30
27072;DHT22;14613;46.308;25.288;2023-03-07T16:52:39;9.00;80.10
27072;DHT22;14613;46.308;25.288;2023-03-07T16:55:05;9.00;80.10
27072;DHT22;14613;46.308;25.288;2023-03-07T16:57:32;9.00;80.10
27072;DHT22;14613;46.308;25.288;2023-03-07T16:59:58;8.90;80.00
27072;DHT22;14613;46.308;25.288;2023-03-07T17:02:25;8.90;80.00
27072;DHT22;14613;46.308;25.288;2023-03-07T17:04:51;8.80;80.10
27072;DHT22;14613;46.308;25.288;2023-03-07T17:07:19;8.80;80.40
27072;DHT22;14613;46.308;25.288;2023-03-07T17:09:46;8.70;80.70
27072;DHT22;14613;46.308;25.288;2023-03-07T17:12:13;8.60;80.70
27072;DHT22;14613;46.308;25.288;2023-03-07T17:14:40;8.60;80.90
27072;DHT22;14613;46.308;25.288;2023-03-07T17:17:06;8.60;80.90
27072;DHT22;14613;46.308;25.288;2023-03-07T17:19:33;8.60;81.00
27072;DHT22;14613;46.308;25.288;2023-03-07T17:22:00;8.60;81.20
27072;DHT22;14613;46.308;25.288;2023-03-07T17:24:27;8.60;81.10
27072;DHT22;14613;46.308;25.288;2023-03-07T17:26:54;8.50;81.10
27072;DHT22;14613;46.308;25.288;2023-03-07T17:29:59;8.60;81.30
27072;DHT22;14613;46.308;25.288;2023-03-07T17:32:25;8.60;81.50
27072;DHT22;14613;46.308;25.288;2023-03-07T17:34:50;8.60;81.50
27072;DHT22;14613;46.308;25.288;2023-03-07T17:37:16;8.60;81.50
27072;DHT22;14613;46.308;25.288;2023-03-07T17:39:42;8.60;81.30
27072;DHT22;14613;46.308;25.288;2023-03-07T17:42:10;8.60;81.30
27072;DHT22;14613;46.308;25.288;2023-03-07T17:44:36;8.60;81.30
27072;DHT22;14613;46.308;25.288;2023-03-07T17:47:11;8.60;81.30
27072;DHT22;14613;46.308;25.288;2023-03-07T17:49:37;8.60;81.30
27072;DHT22;14613;46.308;25.288;2023-03-07T17:52:05;8.60;81.30
27072;DHT22;14613;46.308;25.288;2023-03-07T17:54:31;8.60;81.30
27072;DHT22;14613;46.308;25.288;2023-03-07T17:56:57;8.60;81.40
27072;DHT22;14613;46.308;25.288;2023-03-07T17:59:23;8.60;81.50
27072;DHT22;14613;46.308;25.288;2023-03-07T18:01:49;8.60;81.50
27072;DHT22;14613;46.308;25.288;2023-03-07T18:04:15;8.60;81.30
27072;DHT22;14613;46.308;25.288;2023-03-07T18:06:41;8.60;81.30
27072;DHT22;14613;46.308;25.288;2023-03-07T18:09:07;8.60;81.20
27072;DHT22;14613;46.308;25.288;2023-03-07T18:11:34;8.60;81.20
27072;DHT22;14613;46.308;25.288;2023-03-07T18:14:00;8.60;81.20
27072;DHT22;14613;46.308;25.288;2023-03-07T18:16:26;8.60;81.20